Norfolk, Virginia
Current Conditions -  °F | °C
As of 7:51 AM on Thursday 30 Oct 2014 (Local Time) from KORF Reporting Station
Broken Clouds Broken Clouds  
Wind Chill: 56°   Ceiling: 8500
Heat Index: 56°   Visibility: 10mi
Dew Point: 52°   Wind: 3mph
Humidity: 87%   Direction: 330°NNW
Pressure: 30"   Gusts: NA
Location:  36.85°N, 76.28°W
Report Text: KORF 301151Z AUTO 33003KT 10SM FEW009 BKN085 13/11 A3000 RMK AO2 SLP158 60010 70033 T01330111 10139 20122 53001 TSNO
Loading
Personal Weather Stations






























Interactive Weather Map New forecast layout! Learn more

10-Day Weather Forecast

Advertisements
Track Severe Weather on mobile